sensor_id;sensor_type;location;lat;lon;timestamp;P1;durP1;ratioP1;P2;durP2;ratioP2
15557;SDS011;7880;50.110;9.372;2022-12-24T00:03:40;13.053846153846154;;;2.046153846153847;;
15557;SDS011;7880;50.110;9.372;2022-12-24T00:08:44;10.907692307692306;;;2.430769230769231;;
15557;SDS011;7880;50.110;9.372;2022-12-24T00:13:59;10.046153846153844;;;1.8692307692307695;;
15557;SDS011;7880;50.110;9.372;2022-12-24T00:18:59;5.838461538461538;;;1.8000000000000005;;
15557;SDS011;7880;50.110;9.372;2022-12-24T00:23:59;8.461538461538462;;;1.7692307692307692;;
15557;SDS011;7880;50.110;9.372;2022-12-24T00:29:11;5.161538461538462;;;1.6999999999999995;;
15557;SDS011;7880;50.110;9.372;2022-12-24T00:34:21;5.361538461538462;;;1.7307692307692308;;
15557;SDS011;7880;50.110;9.372;2022-12-24T00:39:13;8.953846153846152;;;2.1307692307692307;;
15557;SDS011;7880;50.110;9.372;2022-12-24T00:44:18;9.992307692307692;;;1.8692307692307695;;
15557;SDS011;7880;50.110;9.372;2022-12-24T00:49:22;9.246153846153847;;;2.269230769230769;;
15557;SDS011;7880;50.110;9.372;2022-12-24T00:54:27;8.515384615384615;;;2.430769230769231;;
15557;SDS011;7880;50.110;9.372;2022-12-24T00:59:36;8.430769230769231;;;1.6307692307692305;;
15557;SDS011;7880;50.110;9.372;2022-12-24T01:05:41;12.615384615384611;;;1.9307692307692308;;
15557;SDS011;7880;50.110;9.372;2022-12-24T01:10:21;11.60769230769231;;;2.1999999999999997;;
15557;SDS011;7880;50.110;9.372;2022-12-24T01:15:27;9.161538461538463;;;1.7615384615384608;;
15557;SDS011;7880;50.110;9.372;2022-12-24T01:20:32;11.592307692307694;;;2.1999999999999997;;
15557;SDS011;7880;50.110;9.372;2022-12-24T01:25:36;6.453846153846152;;;1.6692307692307695;;
15557;SDS011;7880;50.110;9.372;2022-12-24T01:30:41;5.184615384615384;;;1.6307692307692305;;
15557;SDS011;7880;50.110;9.372;2022-12-24T01:35:46;6.238461538461536;;;1.6999999999999995;;
15557;SDS011;7880;50.110;9.372;2022-12-24T01:47:48;11.784615384615384;;;2.092307692307692;;
15557;SDS011;7880;50.110;9.372;2022-12-24T01:52:53;15.061538461538458;;;2.161538461538462;;
15557;SDS011;7880;50.110;9.372;2022-12-24T01:57:58;9.238461538461538;;;3.1384615384615384;;
15557;SDS011;7880;50.110;9.372;2022-12-24T02:03:11;13.823076923076918;;;1.6692307692307695;;
15557;SDS011;7880;50.110;9.372;2022-12-24T02:08:11;8.746153846153847;;;1.8999999999999997;;
15557;SDS011;7880;50.110;9.372;2022-12-24T02:13:20;10.807692307692308;;;1.4;;
15557;SDS011;7880;50.110;9.372;2022-12-24T02:18:19;12.584615384615383;;;2.169230769230769;;
15557;SDS011;7880;50.110;9.372;2022-12-24T02:23:32;16.038461538461544;;;1.9230769230769225;;
15557;SDS011;7880;50.110;9.372;2022-12-24T02:28:33;8.99230769230769;;;1.7846153846153843;;
15557;SDS011;7880;50.110;9.372;2022-12-24T02:33:39;15.123076923076924;;;2.5384615384615383;;
15557;SDS011;7880;50.110;9.372;2022-12-24T02:38:38;9.838461538461539;;;1.6615384615384614;;
15557;SDS011;7880;50.110;9.372;2022-12-24T02:43:43;11.253846153846151;;;1.469230769230769;;
15557;SDS011;7880;50.110;9.372;2022-12-24T02:48:50;8.969230769230771;;;2.6384615384615384;;
15557;SDS011;7880;50.110;9.372;2022-12-24T02:53:50;9.838461538461539;;;3.06923076923077;;
15557;SDS011;7880;50.110;9.372;2022-12-24T02:59:02;8.615384615384615;;;2.261538461538461;;
15557;SDS011;7880;50.110;9.372;2022-12-24T03:04:05;12.846153846153847;;;2.1999999999999997;;
15557;SDS011;7880;50.110;9.372;2022-12-24T03:09:07;9.676923076923076;;;2.1000000000000005;;
15557;SDS011;7880;50.110;9.372;2022-12-24T03:14:10;9.86153846153846;;;3.0;;
15557;SDS011;7880;50.110;9.372;2022-12-24T03:19:15;15.753846153846151;;;2.0692307692307694;;
15557;SDS011;7880;50.110;9.372;2022-12-24T03:24:21;15.02307692307692;;;2.1999999999999997;;
15557;SDS011;7880;50.110;9.372;2022-12-24T03:29:27;6.853846153846155;;;2.0;;
15557;SDS011;7880;50.110;9.372;2022-12-24T03:34:32;13.084615384615383;;;1.8999999999999997;;
15557;SDS011;7880;50.110;9.372;2022-12-24T03:39:38;11.569230769230767;;;2.569230769230769;;
15557;SDS011;7880;50.110;9.372;2022-12-24T03:44:44;8.27692307692308;;;1.6307692307692305;;
15557;SDS011;7880;50.110;9.372;2022-12-24T03:49:49;6.799999999999998;;;1.8999999999999997;;
15557;SDS011;7880;50.110;9.372;2022-12-24T03:54:57;8.684615384615382;;;2.3999999999999995;;
15557;SDS011;7880;50.110;9.372;2022-12-24T04:00:06;12.26923076923077;;;1.8307692307692305;;
15557;SDS011;7880;50.110;9.372;2022-12-24T04:05:06;10.761538461538462;;;1.6999999999999995;;
15557;SDS011;7880;50.110;9.372;2022-12-24T04:10:11;3.6384615384615384;;;1.5;;
15557;SDS011;7880;50.110;9.372;2022-12-24T04:15:16;10.153846153846153;;;1.4615384615384621;;
15557;SDS011;7880;50.110;9.372;2022-12-24T04:20:21;12.446153846153843;;;1.6999999999999995;;
15557;SDS011;7880;50.110;9.372;2022-12-24T04:24:10;12.61538461538462;;;2.1999999999999997;;
15557;SDS011;7880;50.110;9.372;2022-12-24T04:29:15;10.7;;;1.6999999999999995;;
15557;SDS011;7880;50.110;9.372;2022-12-24T04:34:25;8.33846153846154;;;1.6692307692307695;;
15557;SDS011;7880;50.110;9.372;2022-12-24T04:39:24;14.869230769230775;;;2.330769230769231;;
15557;SDS011;7880;50.110;9.372;2022-12-24T04:44:26;20.71538461538462;;;1.969230769230769;;
15557;SDS011;7880;50.110;9.372;2022-12-24T04:49:31;12.546153846153846;;;2.3000000000000003;;
15557;SDS011;7880;50.110;9.372;2022-12-24T04:54:42;9.969230769230771;;;1.9307692307692308;;
15557;SDS011;7880;50.110;9.372;2022-12-24T04:59:42;11.846153846153847;;;2.3999999999999995;;
15557;SDS011;7880;50.110;9.372;2022-12-24T05:04:47;9.876923076923076;;;2.0;;
15557;SDS011;7880;50.110;9.372;2022-12-24T05:09:53;25.06153846153847;;;2.669230769230769;;
15557;SDS011;7880;50.110;9.372;2022-12-24T05:14:58;10.83076923076923;;;3.838461538461539;;
15557;SDS011;7880;50.110;9.372;2022-12-24T05:20:03;9.307692307692308;;;2.6000000000000005;;
15557;SDS011;7880;50.110;9.372;2022-12-24T05:31:58;12.584615384615383;;;2.0692307692307694;;
15557;SDS011;7880;50.110;9.372;2022-12-24T05:37:07;14.123076923076924;;;2.569230769230769;;
15557;SDS011;7880;50.110;9.372;2022-12-24T05:42:09;18.46923076923077;;;2.369230769230769;;
15557;SDS011;7880;50.110;9.372;2022-12-24T05:47:14;15.061538461538458;;;2.5;;
15557;SDS011;7880;50.110;9.372;2022-12-24T05:52:19;10.13846153846154;;;1.8615384615384618;;
15557;SDS011;7880;50.110;9.372;2022-12-24T05:57:23;11.653846153846153;;;2.446153846153846;;
15557;SDS011;7880;50.110;9.372;2022-12-24T06:02:34;8.838461538461537;;;3.1923076923076925;;
15557;SDS011;7880;50.110;9.372;2022-12-24T06:07:34;9.007692307692306;;;2.1999999999999997;;
15557;SDS011;7880;50.110;9.372;2022-12-24T06:12:37;11.076923076923082;;;1.7307692307692308;;
15557;SDS011;7880;50.110;9.372;2022-12-24T06:17:42;12.515384615384615;;;2.469230769230769;;
15557;SDS011;7880;50.110;9.372;2022-12-24T06:22:52;8.507692307692306;;;2.1692307692307686;;
15557;SDS011;7880;50.110;9.372;2022-12-24T06:27:51;8.507692307692306;;;2.1692307692307686;;
15557;SDS011;7880;50.110;9.372;2022-12-24T06:32:56;12.446153846153845;;;2.3615384615384616;;
15557;SDS011;7880;50.110;9.372;2022-12-24T06:38:04;17.007692307692302;;;2.430769230769231;;
15557;SDS011;7880;50.110;9.372;2022-12-24T06:43:07;14.146153846153844;;;2.3999999999999995;;
15557;SDS011;7880;50.110;9.372;2022-12-24T06:48:11;12.615384615384611;;;2.3999999999999995;;
15557;SDS011;7880;50.110;9.372;2022-12-24T06:53:15;20.792307692307688;;;4.6000000000000005;;
15557;SDS011;7880;50.110;9.372;2022-12-24T06:58:21;15.384615384615385;;;3.869230769230768;;
15557;SDS011;7880;50.110;9.372;2022-12-24T07:03:26;13.646153846153844;;;4.046153846153846;;
15557;SDS011;7880;50.110;9.372;2022-12-24T07:08:33;23.630769230769236;;;3.399999999999999;;
15557;SDS011;7880;50.110;9.372;2022-12-24T07:13:36;13.053846153846157;;;3.2692307692307705;;
15557;SDS011;7880;50.110;9.372;2022-12-24T07:18:39;19.653846153846153;;;3.1923076923076925;;
15557;SDS011;7880;50.110;9.372;2022-12-24T07:23:45;14.530769230769234;;;3.399999999999999;;
15557;SDS011;7880;50.110;9.372;2022-12-24T07:28:53;19.199999999999996;;;4.269230769230769;;
15557;SDS011;7880;50.110;9.372;2022-12-24T07:34:12;18.684615384615384;;;4.16923076923077;;
15557;SDS011;7880;50.110;9.372;2022-12-24T07:38:58;14.238461538461536;;;2.830769230769231;;
15557;SDS011;7880;50.110;9.372;2022-12-24T07:44:03;12.538461538461538;;;2.7;;
15557;SDS011;7880;50.110;9.372;2022-12-24T07:49:10;22.56153846153847;;;3.030769230769231;;
15557;SDS011;7880;50.110;9.372;2022-12-24T07:54:13;15.538461538461538;;;3.600000000000001;;
15557;SDS011;7880;50.110;9.372;2022-12-24T07:59:19;17.24615384615385;;;3.56923076923077;;
15557;SDS011;7880;50.110;9.372;2022-12-24T08:04:22;20.084615384615386;;;3.3615384615384616;;
15557;SDS011;7880;50.110;9.372;2022-12-24T08:09:29;19.469230769230773;;;3.8000000000000003;;
15557;SDS011;7880;50.110;9.372;2022-12-24T08:14:36;17.361538461538466;;;3.100000000000001;;
15557;SDS011;7880;50.110;9.372;2022-12-24T08:19:42;24.576923076923077;;;3.600000000000001;;
15557;SDS011;7880;50.110;9.372;2022-12-24T08:24:42;22.56153846153846;;;3.5;;
15557;SDS011;7880;50.110;9.372;2022-12-24T08:29:51;10.299999999999999;;;3.161538461538461;;
15557;SDS011;7880;50.110;9.372;2022-12-24T08:34:51;25.361538461538466;;;3.7692307692307705;;
15557;SDS011;7880;50.110;9.372;2022-12-24T08:39:59;20.046153846153842;;;3.7999999999999994;;
15557;SDS011;7880;50.110;9.372;2022-12-24T08:45:22;16.17692307692308;;;4.1000000000000005;;
15557;SDS011;7880;50.110;9.372;2022-12-24T08:50:24;20.199999999999996;;;4.361538461538462;;
15557;SDS011;7880;50.110;9.372;2022-12-24T08:55:13;24.423076923076923;;;3.600000000000001;;
15557;SDS011;7880;50.110;9.372;2022-12-24T09:00:15;19.900000000000002;;;3.469230769230769;;
15557;SDS011;7880;50.110;9.372;2022-12-24T09:05:18;21.976923076923075;;;4.038461538461537;;
15557;SDS011;7880;50.110;9.372;2022-12-24T09:10:22;23.292307692307695;;;4.769230769230769;;
15557;SDS011;7880;50.110;9.372;2022-12-24T09:15:30;21.946153846153848;;;5.1692307692307695;;
15557;SDS011;7880;50.110;9.372;2022-12-24T09:20:31;12.599999999999996;;;3.169230769230769;;
15557;SDS011;7880;50.110;9.372;2022-12-24T09:25:39;25.76923076923077;;;3.869230769230768;;
15557;SDS011;7880;50.110;9.372;2022-12-24T09:30:21;23.92307692307693;;;4.63846153846154;;
15557;SDS011;7880;50.110;9.372;2022-12-24T09:35:26;21.700000000000006;;;3.899999999999999;;
15557;SDS011;7880;50.110;9.372;2022-12-24T09:40:32;20.253846153846155;;;3.561538461538462;;
15557;SDS011;7880;50.110;9.372;2022-12-24T09:45:36;14.699999999999998;;;3.8307692307692305;;
15557;SDS011;7880;50.110;9.372;2022-12-24T09:50:43;19.215384615384618;;;3.530769230769231;;
15557;SDS011;7880;50.110;9.372;2022-12-24T09:55:43;25.623076923076926;;;3.030769230769231;;
15557;SDS011;7880;50.110;9.372;2022-12-24T10:00:48;17.407692307692308;;;3.1230769230769226;;
15557;SDS011;7880;50.110;9.372;2022-12-24T10:05:56;14.85384615384615;;;2.7692307692307705;;
15557;SDS011;7880;50.110;9.372;2022-12-24T10:10:57;16.953846153846154;;;3.399999999999999;;
15557;SDS011;7880;50.110;9.372;2022-12-24T10:16:11;24.48461538461538;;;4.469230769230769;;
15557;SDS011;7880;50.110;9.372;2022-12-24T10:21:09;21.115384615384617;;;4.130769230769232;;
15557;SDS011;7880;50.110;9.372;2022-12-24T10:26:14;21.4;;;4.23076923076923;;
15557;SDS011;7880;50.110;9.372;2022-12-24T10:31:17;19.099999999999998;;;4.23076923076923;;
15557;SDS011;7880;50.110;9.372;2022-12-24T10:36:24;19.50769230769231;;;4.3999999999999995;;
15557;SDS011;7880;50.110;9.372;2022-12-24T10:41:29;15.153846153846153;;;3.56923076923077;;
15557;SDS011;7880;50.110;9.372;2022-12-24T10:46:47;19.46153846153846;;;3.0;;
15557;SDS011;7880;50.110;9.372;2022-12-24T10:51:45;40.62307692307692;;;20.730769230769234;;
15557;SDS011;7880;50.110;9.372;2022-12-24T10:56:55;34.03846153846153;;;8.723076923076924;;
15557;SDS011;7880;50.110;9.372;2022-12-24T11:01:49;22.05384615384616;;;3.899999999999999;;
15557;SDS011;7880;50.110;9.372;2022-12-24T11:06:55;19.276923076923076;;;3.630769230769232;;
15557;SDS011;7880;50.110;9.372;2022-12-24T11:11:59;14.392307692307696;;;5.1000000000000005;;
15557;SDS011;7880;50.110;9.372;2022-12-24T11:17:15;22.846153846153847;;;3.8307692307692305;;
15557;SDS011;7880;50.110;9.372;2022-12-24T11:22:39;21.74615384615385;;;4.730769230769231;;
15557;SDS011;7880;50.110;9.372;2022-12-24T11:27:46;25.23076923076923;;;8.46153846153846;;
15557;SDS011;7880;50.110;9.372;2022-12-24T11:32:48;16.82307692307692;;;5.538461538461541;;
15557;SDS011;7880;50.110;9.372;2022-12-24T11:38:16;22.915384615384614;;;5.730769230769231;;
15557;SDS011;7880;50.110;9.372;2022-12-24T11:43:03;22.97692307692307;;;5.369230769230768;;
15557;SDS011;7880;50.110;9.372;2022-12-24T11:48:21;40.592307692307685;;;15.800000000000002;;
15557;SDS011;7880;50.110;9.372;2022-12-24T11:53:14;25.115384615384624;;;7.43076923076923;;
15557;SDS011;7880;50.110;9.372;2022-12-24T11:58:23;22.099999999999998;;;4.799999999999999;;
15557;SDS011;7880;50.110;9.372;2022-12-24T12:03:28;18.338461538461537;;;4.730769230769231;;
15557;SDS011;7880;50.110;9.372;2022-12-24T12:08:27;18.23846153846154;;;4.06923076923077;;
15557;SDS011;7880;50.110;9.372;2022-12-24T12:13:32;16.069230769230767;;;3.6692307692307695;;
15557;SDS011;7880;50.110;9.372;2022-12-24T12:18:40;20.16923076923077;;;6.4;;
15557;SDS011;7880;50.110;9.372;2022-12-24T12:23:51;26.630769230769236;;;4.269230769230769;;
15557;SDS011;7880;50.110;9.372;2022-12-24T12:28:48;22.169230769230765;;;3.738461538461539;;
15557;SDS011;7880;50.110;9.372;2022-12-24T12:33:58;19.63076923076923;;;3.261538461538461;;
15557;SDS011;7880;50.110;9.372;2022-12-24T12:38:53;32.07692307692309;;;4.0;;
15557;SDS011;7880;50.110;9.372;2022-12-24T12:44:03;14.70769230769231;;;2.330769230769231;;
15557;SDS011;7880;50.110;9.372;2022-12-24T12:49:06;18.25384615384615;;;3.7000000000000006;;
15557;SDS011;7880;50.110;9.372;2022-12-24T12:54:13;16.199999999999996;;;3.561538461538462;;
15557;SDS011;7880;50.110;9.372;2022-12-24T12:59:13;16.00769230769231;;;3.2307692307692295;;
15557;SDS011;7880;50.110;9.372;2022-12-24T13:04:29;17.015384615384615;;;3.43076923076923;;
15557;SDS011;7880;50.110;9.372;2022-12-24T13:09:29;17.307692307692307;;;4.1000000000000005;;
15557;SDS011;7880;50.110;9.372;2022-12-24T13:14:34;20.046153846153842;;;3.369230769230768;;
15557;SDS011;7880;50.110;9.372;2022-12-24T13:19:38;19.74615384615385;;;4.16923076923077;;
15557;SDS011;7880;50.110;9.372;2022-12-24T13:24:40;15.684615384615382;;;3.43076923076923;;
15557;SDS011;7880;50.110;9.372;2022-12-24T13:29:50;20.769230769230774;;;5.63076923076923;;
15557;SDS011;7880;50.110;9.372;2022-12-24T13:34:50;22.199999999999992;;;6.5;;
15557;SDS011;7880;50.110;9.372;2022-12-24T13:40:16;26.576923076923077;;;3.630769230769232;;
15557;SDS011;7880;50.110;9.372;2022-12-24T13:45:45;18.738461538461536;;;4.33076923076923;;
15557;SDS011;7880;50.110;9.372;2022-12-24T13:50:28;22.400000000000002;;;3.869230769230768;;
15557;SDS011;7880;50.110;9.372;2022-12-24T13:55:32;23.56153846153846;;;5.9;;
15557;SDS011;7880;50.110;9.372;2022-12-24T14:00:37;19.992307692307694;;;4.299999999999999;;
15557;SDS011;7880;50.110;9.372;2022-12-24T14:05:48;20.47692307692307;;;3.7000000000000006;;
15557;SDS011;7880;50.110;9.372;2022-12-24T14:10:45;18.676923076923078;;;4.23076923076923;;
15557;SDS011;7880;50.110;9.372;2022-12-24T14:20:55;17.838461538461537;;;4.33076923076923;;
15557;SDS011;7880;50.110;9.372;2022-12-24T14:25:59;18.076923076923077;;;5.538461538461541;;
15557;SDS011;7880;50.110;9.372;2022-12-24T14:31:04;19.599999999999998;;;3.661538461538461;;
15557;SDS011;7880;50.110;9.372;2022-12-24T14:34:33;20.146153846153847;;;7.438461538461539;;
15557;SDS011;7880;50.110;9.372;2022-12-24T14:39:43;18.95384615384615;;;6.038461538461541;;
15557;SDS011;7880;50.110;9.372;2022-12-24T14:44:45;17.561538461538458;;;6.869230769230768;;
15557;SDS011;7880;50.110;9.372;2022-12-24T14:49:52;21.76153846153846;;;8.807692307692308;;
15557;SDS011;7880;50.110;9.372;2022-12-24T14:54:55;12.66923076923077;;;3.2999999999999994;;
15557;SDS011;7880;50.110;9.372;2022-12-24T14:59:59;16.0;;;5.700000000000002;;
15557;SDS011;7880;50.110;9.372;2022-12-24T15:05:09;40.46153846153846;;;9.807692307692308;;
15557;SDS011;7880;50.110;9.372;2022-12-24T15:10:19;24.007692307692306;;;7.799999999999998;;
15557;SDS011;7880;50.110;9.372;2022-12-24T15:15:14;31.32307692307692;;;10.599999999999998;;
15557;SDS011;7880;50.110;9.372;2022-12-24T15:20:21;19.646153846153847;;;5.4;;
15557;SDS011;7880;50.110;9.372;2022-12-24T15:25:26;30.52307692307692;;;11.86153846153846;;
15557;SDS011;7880;50.110;9.372;2022-12-24T15:30:32;28.74615384615384;;;15.269230769230765;;
15557;SDS011;7880;50.110;9.372;2022-12-24T15:35:45;22.315384615384612;;;8.299999999999999;;
15557;SDS011;7880;50.110;9.372;2022-12-24T15:40:40;20.823076923076922;;;5.9;;
15557;SDS011;7880;50.110;9.372;2022-12-24T15:45:45;17.63076923076923;;;4.799999999999999;;
15557;SDS011;7880;50.110;9.372;2022-12-24T15:50:50;28.684615384615384;;;12.5;;
15557;SDS011;7880;50.110;9.372;2022-12-24T15:56:04;19.75384615384615;;;6.623076923076924;;
15557;SDS011;7880;50.110;9.372;2022-12-24T16:01:05;17.476923076923075;;;4.130769230769232;;
15557;SDS011;7880;50.110;9.372;2022-12-24T16:06:11;18.24615384615385;;;4.0;;
15557;SDS011;7880;50.110;9.372;2022-12-24T16:11:18;28.838461538461544;;;6.56923076923077;;
15557;SDS011;7880;50.110;9.372;2022-12-24T16:16:28;18.36923076923077;;;6.130769230769232;;
15557;SDS011;7880;50.110;9.372;2022-12-24T16:21:27;22.492307692307694;;;4.0307692307692315;;
15557;SDS011;7880;50.110;9.372;2022-12-24T16:26:30;21.676923076923078;;;6.730769230769231;;
15557;SDS011;7880;50.110;9.372;2022-12-24T16:31:36;19.392307692307696;;;6.06923076923077;;
15557;SDS011;7880;50.110;9.372;2022-12-24T16:36:42;18.007692307692306;;;6.36153846153846;;
15557;SDS011;7880;50.110;9.372;2022-12-24T16:48:35;14.538461538461538;;;4.16923076923077;;
15557;SDS011;7880;50.110;9.372;2022-12-24T16:53:40;19.25384615384615;;;4.299999999999999;;
15557;SDS011;7880;50.110;9.372;2022-12-24T16:58:45;16.77692307692308;;;4.23076923076923;;
15557;SDS011;7880;50.110;9.372;2022-12-24T17:03:50;21.646153846153847;;;6.0;;
15557;SDS011;7880;50.110;9.372;2022-12-24T17:08:55;11.453846153846152;;;3.576923076923078;;
15557;SDS011;7880;50.110;9.372;2022-12-24T17:13:57;15.076923076923082;;;3.600000000000001;;
15557;SDS011;7880;50.110;9.372;2022-12-24T17:19:11;10.484615384615383;;;3.261538461538461;;
15557;SDS011;7880;50.110;9.372;2022-12-24T17:24:08;7.161538461538461;;;3.100000000000001;;
15557;SDS011;7880;50.110;9.372;2022-12-24T17:29:13;16.053846153846155;;;2.899999999999999;;
15557;SDS011;7880;50.110;9.372;2022-12-24T17:34:21;10.03076923076923;;;2.7;;
15557;SDS011;7880;50.110;9.372;2022-12-24T17:39:24;14.199999999999998;;;2.7307692307692295;;
15557;SDS011;7880;50.110;9.372;2022-12-24T17:44:29;16.923076923076927;;;3.2;;
15557;SDS011;7880;50.110;9.372;2022-12-24T17:49:35;12.692307692307697;;;3.7999999999999994;;
15557;SDS011;7880;50.110;9.372;2022-12-24T17:54:38;21.16923076923077;;;4.469230769230769;;
15557;SDS011;7880;50.110;9.372;2022-12-24T17:59:42;14.746153846153849;;;3.2;;
15557;SDS011;7880;50.110;9.372;2022-12-24T18:04:50;11.692307692307692;;;2.830769230769231;;
15557;SDS011;7880;50.110;9.372;2022-12-24T18:09:51;10.707692307692307;;;3.0;;
15557;SDS011;7880;50.110;9.372;2022-12-24T18:15:10;14.769230769230765;;;4.9923076923076914;;
15557;SDS011;7880;50.110;9.372;2022-12-24T18:20:03;48.607692307692304;;;22.969230769230766;;
15557;SDS011;7880;50.110;9.372;2022-12-24T18:25:04;20.54615384615385;;;10.33076923076923;;
15557;SDS011;7880;50.110;9.372;2022-12-24T18:30:10;55.53846153846154;;;39.06153846153846;;
15557;SDS011;7880;50.110;9.372;2022-12-24T18:35:14;38.30769230769231;;;24.23076923076923;;
15557;SDS011;7880;50.110;9.372;2022-12-24T18:40:20;81.78461538461539;;;56.561538461538476;;
15557;SDS011;7880;50.110;9.372;2022-12-24T18:45:26;144.55384615384617;;;104.63846153846156;;
15557;SDS011;7880;50.110;9.372;2022-12-24T18:50:32;55.10769230769232;;;38.62307692307692;;
15557;SDS011;7880;50.110;9.372;2022-12-24T18:55:39;28.623076923076916;;;18.74615384615385;;
15557;SDS011;7880;50.110;9.372;2022-12-24T19:00:43;27.684615384615384;;;17.638461538461538;;
15557;SDS011;7880;50.110;9.372;2022-12-24T19:05:50;31.78461538461539;;;21.53846153846153;;
15557;SDS011;7880;50.110;9.372;2022-12-24T19:10:54;29.900000000000002;;;21.469230769230766;;
15557;SDS011;7880;50.110;9.372;2022-12-24T19:15:59;31.415384615384603;;;13.130769230769225;;
15557;SDS011;7880;50.110;9.372;2022-12-24T19:21:07;26.77692307692308;;;15.199999999999998;;
15557;SDS011;7880;50.110;9.372;2022-12-24T19:26:06;31.50769230769231;;;19.123076923076923;;
15557;SDS011;7880;50.110;9.372;2022-12-24T19:31:15;20.215384615384615;;;6.084615384615384;;
15557;SDS011;7880;50.110;9.372;2022-12-24T19:36:18;18.507692307692306;;;8.830769230769231;;
15557;SDS011;7880;50.110;9.372;2022-12-24T19:40:40;24.884615384615383;;;11.315384615384614;;
15557;SDS011;7880;50.110;9.372;2022-12-24T19:45:45;15.523076923076928;;;5.130769230769232;;
15557;SDS011;7880;50.110;9.372;2022-12-24T19:51:00;17.938461538461535;;;6.330769230769231;;
15557;SDS011;7880;50.110;9.372;2022-12-24T19:56:03;14.246153846153849;;;5.1000000000000005;;
15557;SDS011;7880;50.110;9.372;2022-12-24T20:01:03;13.261538461538464;;;4.769230769230769;;
15557;SDS011;7880;50.110;9.372;2022-12-24T20:06:05;12.446153846153843;;;3.369230769230768;;
15557;SDS011;7880;50.110;9.372;2022-12-24T20:11:22;11.715384615384615;;;3.130769230769232;;
15557;SDS011;7880;50.110;9.372;2022-12-24T20:16:14;11.161538461538461;;;2.761538461538461;;
15557;SDS011;7880;50.110;9.372;2022-12-24T20:21:18;17.653846153846153;;;3.938461538461538;;
15557;SDS011;7880;50.110;9.372;2022-12-24T20:26:26;15.307692307692308;;;2.7307692307692295;;
15557;SDS011;7880;50.110;9.372;2022-12-24T20:31:42;16.1;;;4.0307692307692315;;
15557;SDS011;7880;50.110;9.372;2022-12-24T20:36:33;14.523076923076925;;;3.06923076923077;;
15557;SDS011;7880;50.110;9.372;2022-12-24T20:41:44;13.792307692307693;;;3.3615384615384616;;
15557;SDS011;7880;50.110;9.372;2022-12-24T20:46:47;12.576923076923082;;;5.06923076923077;;
15557;SDS011;7880;50.110;9.372;2022-12-24T20:51:58;9.36923076923077;;;2.630769230769231;;
15557;SDS011;7880;50.110;9.372;2022-12-24T20:57:09;15.030769230769229;;;3.7000000000000006;;
15557;SDS011;7880;50.110;9.372;2022-12-24T21:02:11;6.984615384615386;;;2.899999999999999;;
15557;SDS011;7880;50.110;9.372;2022-12-24T21:07:16;9.715384615384615;;;3.100000000000001;;
15557;SDS011;7880;50.110;9.372;2022-12-24T21:12:57;9.746153846153847;;;2.899999999999999;;
15557;SDS011;7880;50.110;9.372;2022-12-24T21:17:38;10.961538461538462;;;2.899999999999999;;
15557;SDS011;7880;50.110;9.372;2022-12-24T21:22:49;16.67692307692308;;;3.56923076923077;;
15557;SDS011;7880;50.110;9.372;2022-12-24T21:27:49;10.346153846153847;;;3.0;;
15557;SDS011;7880;50.110;9.372;2022-12-24T21:32:54;13.0;;;3.2692307692307705;;
15557;SDS011;7880;50.110;9.372;2022-12-24T21:37:58;10.723076923076924;;;3.3615384615384616;;
15557;SDS011;7880;50.110;9.372;2022-12-24T21:43:03;9.746153846153847;;;2.899999999999999;;
15557;SDS011;7880;50.110;9.372;2022-12-24T21:55:15;16.976923076923075;;;4.23076923076923;;
15557;SDS011;7880;50.110;9.372;2022-12-24T22:00:20;8.738461538461538;;;3.5;;
15557;SDS011;7880;50.110;9.372;2022-12-24T22:05:25;9.507692307692306;;;3.5;;
15557;SDS011;7880;50.110;9.372;2022-12-24T22:11:46;13.900000000000004;;;3.399999999999999;;
15557;SDS011;7880;50.110;9.372;2022-12-24T22:16:27;10.546153846153848;;;2.6000000000000005;;
15557;SDS011;7880;50.110;9.372;2022-12-24T22:21:33;14.323076923076922;;;3.0;;
15557;SDS011;7880;50.110;9.372;2022-12-24T22:26:40;12.484615384615385;;;3.100000000000001;;
15557;SDS011;7880;50.110;9.372;2022-12-24T22:31:46;7.338461538461539;;;2.6000000000000005;;
15557;SDS011;7880;50.110;9.372;2022-12-24T22:36:51;10.661538461538461;;;3.0;;
15557;SDS011;7880;50.110;9.372;2022-12-24T22:42:00;13.16923076923077;;;2.899999999999999;;
15557;SDS011;7880;50.110;9.372;2022-12-24T22:47:03;8.27692307692308;;;2.6000000000000005;;
15557;SDS011;7880;50.110;9.372;2022-12-24T22:52:09;12.753846153846155;;;3.161538461538461;;
15557;SDS011;7880;50.110;9.372;2022-12-24T22:57:13;9.392307692307693;;;3.130769230769232;;